»·PEaware :: N55NT KBFL-KCMA

N55NT :: KBFL-KCMA

FLIGHT INFORMATION

Flight Status: Arrived
Operator: Privately registered:
United States
More flights under this callsign
Pilot: Craig H. (6968)
Aircraft: BEECH AIRCRAFT BARON
(BE58)
More flights by this aircraft type
Origin: KBFL Meadows
United States
Destination: KCMA Camarillo
United States
More flights between these airports :: More routes between these airports
Route: +GMN SESPE
File this flight plan on PilotEdge
Remarks:
Altitude:
(Current/Filed)
9,000ft
Speed:
(Current/Filed)
185kts
Departed: 11-Jul-20 08:01 AM
Arrived: 11-Jul-20 08:40 AM
Distance/Time
Traveled:
73nm/0:38
Distance/Time
To Go:
Arrived

Flight Plot

Page will automatically refresh every two minutes.

Flight plan parsing failed; only flown route is shown


Map Options




Map Legend


Flown Route
Filed Route
Departure Airport
Arrival Airport
Navaid (VOR, NDB)
Fix

Horizontal Profiles

Position Reports

Time Latitude Longitude Heading Altitude Ground
Speed
11-Jul-20 07:44 35.429373 -119.046098 226 494ft 0kts
11-Jul-20 07:45 35.429373 -119.046098 226 494ft 0kts
11-Jul-20 07:46 35.429373 -119.046098 226 494ft 0kts
11-Jul-20 07:47 35.429373 -119.046098 226 494ft 0kts
11-Jul-20 07:48 35.429373 -119.046098 226 494ft 0kts
11-Jul-20 07:49 35.429373 -119.046098 226 494ft 0kts
11-Jul-20 07:50 35.429373 -119.046098 226 494ft 0kts
11-Jul-20 07:51 35.429373 -119.046098 226 494ft 0kts
11-Jul-20 07:52 35.429373 -119.046098 226 494ft 0kts
11-Jul-20 07:53 35.429296 -119.046197 225 493ft 0kts
11-Jul-20 07:54 35.429264 -119.046336 268 493ft 0kts
11-Jul-20 07:55 35.429052 -119.046756 211 491ft 1kts
11-Jul-20 07:56 35.426677 -119.045300 137 482ft 13kts
11-Jul-20 07:57 35.425839 -119.044614 207 480ft 0kts
11-Jul-20 07:58 35.425646 -119.044781 224 479ft 5kts
11-Jul-20 07:59 35.425466 -119.046044 312 475ft 0kts
11-Jul-20 08:00 35.443065 -119.066765 316 1132ft 130kts
11-Jul-20 08:01 35.472598 -119.100924 314 2514ft 161kts
11-Jul-20 08:02 35.507125 -119.143318 314 3113ft 185kts
11-Jul-20 08:03 35.541167 -119.184909 314 4272ft 164kts
11-Jul-20 08:04 35.555608 -119.230194 234 5371ft 147kts
11-Jul-20 08:05 35.521256 -119.233690 157 6459ft 135kts
11-Jul-20 08:06 35.484262 -119.214747 157 7486ft 151kts
11-Jul-20 08:07 35.445329 -119.194440 157 8487ft 152kts
11-Jul-20 08:08 35.406727 -119.174234 157 9481ft 149kts
11-Jul-20 08:09 35.369925 -119.154958 157 10460ft 141kts
11-Jul-20 08:10 35.332625 -119.135467 157 11009ft 163kts
11-Jul-20 08:11 35.287408 -119.111924 157 10994ft 184kts
11-Jul-20 08:12 35.239843 -119.087133 157 10992ft 187kts
11-Jul-20 08:13 35.192102 -119.062264 157 10991ft 187kts
11-Jul-20 08:14 35.143846 -119.037160 157 10993ft 191kts
11-Jul-20 08:15 35.094755 -119.011635 157 11007ft 192kts
11-Jul-20 08:16 35.045399 -118.986016 157 11038ft 192kts
11-Jul-20 08:17 34.996434 -118.960609 158 11117ft 190kts
11-Jul-20 08:18 34.947856 -118.935474 159 11175ft 189kts
11-Jul-20 08:19 34.899365 -118.910429 159 11191ft 190kts
11-Jul-20 08:20 34.853494 -118.886778 159 11163ft 191kts
11-Jul-20 08:21 34.804157 -118.862831 170 11163ft 189kts
11-Jul-20 08:22 34.751990 -118.852892 173 11163ft 190kts
11-Jul-20 08:23 34.699780 -118.844155 173 11160ft 190kts
11-Jul-20 08:24 34.647142 -118.835508 173 11037ft 196kts
11-Jul-20 08:25 34.589482 -118.826103 173 10068ft 217kts
11-Jul-20 08:26 34.530297 -118.816368 173 9158ft 206kts
11-Jul-20 08:27 34.477107 -118.807670 174 9106ft 186kts
11-Jul-20 08:28 34.426087 -118.799325 174 9031ft 186kts
11-Jul-20 08:29 34.370809 -118.790353 174 8032ft 206kts
11-Jul-20 08:30 34.316792 -118.783985 186 6816ft 190kts
11-Jul-20 08:31 34.265154 -118.790995 188 5611ft 183kts
11-Jul-20 08:32 34.221471 -118.812717 240 4423ft 172kts
11-Jul-20 08:33 34.212330 -118.865060 272 3493ft 154kts
11-Jul-20 08:34 34.212055 -118.910588 272 2878ft 118kts
11-Jul-20 08:35 34.212455 -118.950262 271 2277ft 121kts
11-Jul-20 08:36 34.212848 -118.991792 271 1609ft 123kts
11-Jul-20 08:37 34.213190 -119.030001 271 988ft 110kts
11-Jul-20 08:38 34.213501 -119.065568 270 419ft 104kts
11-Jul-20 08:39 34.213714 -119.094397 242 66ft 27kts
11-Jul-20 08:40 34.211728 -119.095504 149 64ft 11kts
11-Jul-20 08:41 34.210743 -119.093318 7 65ft 0kts

Navigation Log

Ident Type
Flight plan parsing failed, navigation log unavailable